Jefferson, Louisiana
Current Conditions -  °F | °C
As of 5:53 AM on Thursday 27 Nov 2014 (Local Time) from KMSY Reporting Station
Clear Clear  
Wind Chill: 51°   Ceiling: Unl
Heat Index: 51°   Visibility: 10mi
Dew Point: 41°   Wind: 8mph
Humidity: 68%   Direction: 340°NNW
Pressure: 30.37"   Gusts: NA
Location:  29.96°N, 90.17°W
Report Text: KMSY 271153Z 34007KT 10SM CLR 11/05 A3037 RMK AO2 SLP288 T01060050 10139 20089 53019
Loading
Personal Weather Stations






























Interactive Weather Map New forecast layout! Learn more

10-Day Weather Forecast

Advertisements
Track Severe Weather on mobile